Time,TemperatureF,DewpointF,PressureIn,WindDirection,WindDirectionDegrees,WindSpeedMPH,WindSpeedGustMPH,Humidity,HourlyPrecipIn,Conditions,Clouds,dailyrainin,SoftwareType,DateUTC
2013-08-09 00:10:00,73.6,68.0,29.85,NNE,23,5.0,12.0,82,0.00,,,0.00,weatherlink.com 1.10,2013-08-09 06:10:00,
2013-08-09 00:25:00,73.3,68.0,29.84,NE,40,5.0,8.0,84,0.00,,,0.00,weatherlink.com 1.10,2013-08-09 06:25:00,
2013-08-09 00:40:00,72.8,68.0,29.84,NNE,33,4.0,9.0,84,0.00,,,0.00,weatherlink.com 1.10,2013-08-09 06:40:00,
2013-08-09 00:55:00,71.7,67.0,29.83,NE,36,0.0,7.0,85,0.00,,,0.00,weatherlink.com 1.10,2013-08-09 06:55:00,
2013-08-09 01:10:00,70.8,67.0,29.82,NNE,26,7.0,11.0,86,0.00,,,0.00,weatherlink.com 1.10,2013-08-09 07:10:00,
2013-08-09 01:25:00,70.5,66.0,29.83,NE,40,0.0,6.0,86,0.00,,,0.00,weatherlink.com 1.10,2013-08-09 07:25:00,
2013-08-09 01:40:00,70.3,66.0,29.82,NE,42,0.0,4.0,87,0.00,,,0.00,weatherlink.com 1.10,2013-08-09 07:40:00,
2013-08-09 01:55:00,70.2,66.0,29.82,NE,42,0.0,0.0,87,0.00,,,0.00,weatherlink.com 1.10,2013-08-09 07:55:00,
2013-08-09 02:10:00,70.1,66.0,29.83,NE,42,0.0,0.0,87,0.00,,,0.00,weatherlink.com 1.10,2013-08-09 08:10:00,
2013-08-09 02:25:00,69.9,66.0,29.84,NE,42,0.0,0.0,88,0.00,,,0.00,weatherlink.com 1.10,2013-08-09 08:25:00,
2013-08-09 02:40:00,69.9,67.0,29.85,NE,43,0.0,1.0,89,0.00,,,0.00,weatherlink.com 1.10,2013-08-09 08:40:00,
2013-08-09 02:55:00,69.9,67.0,29.86,NE,42,0.0,0.0,89,0.00,,,0.00,weatherlink.com 1.10,2013-08-09 08:55:00,
2013-08-09 03:10:00,69.9,67.0,29.87,NNW,340,1.0,6.0,89,0.00,,,0.00,weatherlink.com 1.10,2013-08-09 09:10:00,
2013-08-09 03:25:00,70.1,67.0,29.81,ENE,76,8.0,9.0,88,0.00,,,0.00,weatherlink.com 1.10,2013-08-09 09:25:00,
2013-08-09 03:40:00,71.1,66.0,29.79,East,95,0.0,14.0,84,0.00,,,0.00,weatherlink.com 1.10,2013-08-09 09:40:00,
2013-08-09 03:55:00,71.8,67.0,29.84,NW,310,0.0,10.0,84,0.00,,,0.00,weatherlink.com 1.10,2013-08-09 09:55:00,
2013-08-09 04:10:00,71.3,66.0,29.85,NW,310,0.0,5.0,84,0.00,,,0.00,weatherlink.com 1.10,2013-08-09 10:10:00,
2013-08-09 04:25:00,71.1,66.0,29.85,NW,310,0.0,0.0,84,0.00,,,0.00,weatherlink.com 1.10,2013-08-09 10:25:00,
2013-08-09 04:40:00,71.0,66.0,29.86,NW,310,0.0,0.0,84,0.00,,,0.00,weatherlink.com 1.10,2013-08-09 10:40:00,
2013-08-09 04:55:00,70.7,66.0,29.87,NW,310,0.0,1.0,86,0.00,,,0.00,weatherlink.com 1.10,2013-08-09 10:55:00,
2013-08-09 05:10:00,70.4,66.0,29.87,NW,310,0.0,0.0,87,0.00,,,0.00,weatherlink.com 1.10,2013-08-09 11:10:00,
2013-08-09 05:25:00,69.9,66.0,29.87,NW,310,0.0,3.0,88,0.00,,,0.00,weatherlink.com 1.10,2013-08-09 11:25:00,
2013-08-09 05:40:00,69.9,67.0,29.88,NW,310,0.0,0.0,89,0.00,,,0.00,weatherlink.com 1.10,2013-08-09 11:40:00,
2013-08-09 05:56:00,69.9,67.0,29.88,NW,310,4.0,5.0,90,0.00,,,0.00,weatherlink.com 1.10,2013-08-09 11:56:00,
2013-08-09 06:10:00,69.9,67.0,29.89,NW,310,2.0,4.0,89,0.00,,,0.00,weatherlink.com 1.10,2013-08-09 12:10:00,
2013-08-09 06:26:00,69.8,67.0,29.89,NW,310,0.0,0.0,89,0.00,,,0.00,weatherlink.com 1.10,2013-08-09 12:26:00,
2013-08-09 06:41:00,69.9,67.0,29.90,NW,310,0.0,1.0,90,0.00,,,0.00,weatherlink.com 1.10,2013-08-09 12:41:00,
2013-08-09 06:56:00,70.0,67.0,29.90,NW,310,3.0,4.0,90,0.00,,,0.00,weatherlink.com 1.10,2013-08-09 12:56:00,
2013-08-09 07:11:00,70.4,67.0,29.91,NW,310,0.0,5.0,90,0.00,,,0.00,weatherlink.com 1.10,2013-08-09 13:11:00,
2013-08-09 07:26:00,71.3,68.0,29.91,NW,310,2.0,5.0,89,0.00,,,0.00,weatherlink.com 1.10,2013-08-09 13:26:00,
2013-08-09 07:41:00,72.4,68.0,29.91,NNW,337,5.0,7.0,87,0.00,,,0.00,weatherlink.com 1.10,2013-08-09 13:41:00,
2013-08-09 07:56:00,73.4,69.0,29.91,North,10,6.0,8.0,85,0.00,,,0.00,weatherlink.com 1.10,2013-08-09 13:56:00,
2013-08-09 08:11:00,73.3,69.0,29.92,North,4,6.0,10.0,85,0.00,,,0.00,weatherlink.com 1.10,2013-08-09 14:11:00,
2013-08-09 08:26:00,74.0,69.0,29.92,North,4,7.0,10.0,84,0.00,,,0.00,weatherlink.com 1.10,2013-08-09 14:26:00,
2013-08-09 08:41:00,75.0,69.0,29.92,NNE,16,5.0,9.0,82,0.00,,,0.00,weatherlink.com 1.10,2013-08-09 14:41:00,
2013-08-09 08:56:00,75.6,69.0,29.92,North,10,3.0,8.0,80,0.00,,,0.00,weatherlink.com 1.10,2013-08-09 14:56:00,
2013-08-09 09:11:00,76.8,69.0,29.92,North,8,6.0,9.0,78,0.00,,,0.00,weatherlink.com 1.10,2013-08-09 15:11:00,
2013-08-09 09:26:00,77.7,69.0,29.92,NNE,14,3.0,7.0,75,0.00,,,0.00,weatherlink.com 1.10,2013-08-09 15:26:00,
2013-08-09 09:41:00,78.6,69.0,29.92,NE,34,0.0,6.0,73,0.00,,,0.00,weatherlink.com 1.10,2013-08-09 15:41:00,
2013-08-09 09:56:00,80.3,68.0,29.92,North,359,3.0,6.0,67,0.00,,,0.00,weatherlink.com 1.10,2013-08-09 15:56:00,
2013-08-09 10:11:00,80.7,69.0,29.92,NNW,335,4.0,10.0,68,0.00,,,0.00,weatherlink.com 1.10,2013-08-09 16:11:00,
2013-08-09 10:26:00,81.7,69.0,29.93,NNE,13,8.0,9.0,66,0.00,,,0.00,weatherlink.com 1.10,2013-08-09 16:26:00,
2013-08-09 10:41:00,82.3,70.0,29.93,North,354,6.0,9.0,66,0.00,,,0.00,weatherlink.com 1.10,2013-08-09 16:41:00,
2013-08-09 10:56:00,82.1,70.0,29.93,NNW,342,5.0,11.0,66,0.00,,,0.00,weatherlink.com 1.10,2013-08-09 16:56:00,
2013-08-09 11:11:00,82.1,69.0,29.93,North,4,9.0,11.0,65,0.00,,,0.00,weatherlink.com 1.10,2013-08-09 17:11:00,
2013-08-09 11:26:00,82.6,69.0,29.93,North,8,7.0,13.0,63,0.00,,,0.00,weatherlink.com 1.10,2013-08-09 17:26:00,
2013-08-09 11:41:00,82.6,69.0,29.93,North,4,4.0,13.0,63,0.00,,,0.00,weatherlink.com 1.10,2013-08-09 17:41:00,
2013-08-09 11:56:00,83.6,69.0,29.93,North,4,5.0,14.0,61,0.00,,,0.00,weatherlink.com 1.10,2013-08-09 17:56:00,
2013-08-09 12:11:00,84.1,68.0,29.93,NNW,332,6.0,10.0,58,0.00,,,0.00,weatherlink.com 1.10,2013-08-09 18:11:00,
2013-08-09 12:26:00,84.4,67.0,29.93,NNE,30,3.0,11.0,56,0.00,,,0.00,weatherlink.com 1.10,2013-08-09 18:26:00,
2013-08-09 12:41:00,84.6,68.0,29.93,NW,322,4.0,13.0,57,0.00,,,0.00,weatherlink.com 1.10,2013-08-09 18:41:00,
2013-08-09 12:56:00,84.4,67.0,29.93,NNE,21,7.0,14.0,57,0.00,,,0.00,weatherlink.com 1.10,2013-08-09 18:56:00,
2013-08-09 13:11:00,84.6,67.0,29.93,North,8,6.0,12.0,56,0.00,,,0.00,weatherlink.com 1.10,2013-08-09 19:11:00,
2013-08-09 13:26:00,86.0,68.0,29.93,NNE,31,12.0,15.0,56,0.00,,,0.00,weatherlink.com 1.10,2013-08-09 19:26:00,
2013-08-09 13:41:00,86.0,66.0,29.93,NW,314,2.0,8.0,52,0.00,,,0.00,weatherlink.com 1.10,2013-08-09 19:41:00,
2013-08-09 13:56:00,86.5,67.0,29.92,NNW,332,5.0,11.0,52,0.00,,,0.00,weatherlink.com 1.10,2013-08-09 19:56:00,
2013-08-09 14:11:00,87.2,67.0,29.92,NNE,19,6.0,10.0,52,0.00,,,0.00,weatherlink.com 1.10,2013-08-09 20:11:00,
2013-08-09 14:26:00,86.2,66.0,29.92,North,8,5.0,13.0,52,0.00,,,0.00,weatherlink.com 1.10,2013-08-09 20:26:00,
2013-08-09 14:41:00,87.0,68.0,29.92,NW,326,13.0,13.0,53,0.00,,,0.00,weatherlink.com 1.10,2013-08-09 20:41:00,
2013-08-09 14:56:00,87.1,67.0,29.92,NNW,338,6.0,13.0,52,0.00,,,0.00,weatherlink.com 1.10,2013-08-09 20:56:00,
2013-08-09 15:11:00,87.5,68.0,29.91,North,10,10.0,12.0,52,0.00,,,0.00,weatherlink.com 1.10,2013-08-09 21:11:00,
2013-08-09 15:27:00,87.9,66.0,29.91,NW,322,3.0,13.0,49,0.00,,,0.00,weatherlink.com 1.10,2013-08-09 21:27:00,
2013-08-09 15:41:00,88.0,66.0,29.91,NNW,343,8.0,11.0,49,0.00,,,0.00,weatherlink.com 1.10,2013-08-09 21:41:00,
2013-08-09 15:56:00,87.7,67.0,29.91,NNE,24,6.0,13.0,50,0.00,,,0.00,weatherlink.com 1.10,2013-08-09 21:56:00,
2013-08-09 16:11:00,87.1,67.0,29.91,NE,35,8.0,13.0,51,0.00,,,0.00,weatherlink.com 1.10,2013-08-09 22:11:00,
2013-08-09 16:26:00,87.4,67.0,29.91,North,354,5.0,15.0,51,0.00,,,0.00,weatherlink.com 1.10,2013-08-09 22:26:00,
2013-08-09 16:42:00,87.0,67.0,29.90,North,4,7.0,14.0,52,0.00,,,0.00,weatherlink.com 1.10,2013-08-09 22:42:00,
2013-08-09 16:57:00,87.1,67.0,29.90,NNE,18,5.0,14.0,52,0.00,,,0.00,weatherlink.com 1.10,2013-08-09 22:57:00,
2013-08-09 17:12:00,86.7,66.0,29.90,NNW,347,8.0,15.0,51,0.00,,,0.00,weatherlink.com 1.10,2013-08-09 23:12:00,
2013-08-09 17:27:00,86.2,66.0,29.90,NNE,14,8.0,12.0,51,0.00,,,0.00,weatherlink.com 1.10,2013-08-09 23:27:00,
2013-08-09 17:42:00,86.1,66.0,29.90,North,4,8.0,14.0,51,0.00,,,0.00,weatherlink.com 1.10,2013-08-09 23:42:00,
2013-08-09 17:57:00,86.1,65.0,29.90,North,359,4.0,13.0,50,0.00,,,0.00,weatherlink.com 1.10,2013-08-09 23:57:00,
2013-08-09 18:12:00,86.1,66.0,29.91,NNE,14,4.0,10.0,51,0.00,,,0.00,weatherlink.com 1.10,2013-08-10 00:12:00,
2013-08-09 18:27:00,85.1,66.0,29.91,North,4,8.0,12.0,53,0.00,,,0.00,weatherlink.com 1.10,2013-08-10 00:27:00,
2013-08-09 18:42:00,84.8,66.0,29.92,NNW,345,6.0,7.0,54,0.00,,,0.00,weatherlink.com 1.10,2013-08-10 00:42:00,
2013-08-09 18:57:00,85.0,66.0,29.93,NNW,342,5.0,9.0,54,0.00,,,0.00,weatherlink.com 1.10,2013-08-10 00:57:00,
2013-08-09 19:12:00,84.4,67.0,29.93,North,349,5.0,9.0,56,0.00,,,0.00,weatherlink.com 1.10,2013-08-10 01:12:00,
2013-08-09 19:27:00,83.6,66.0,29.94,NNW,328,5.0,7.0,56,0.00,,,0.00,weatherlink.com 1.10,2013-08-10 01:27:00,
2013-08-09 19:42:00,82.7,66.0,29.94,NNW,332,1.0,6.0,58,0.00,,,0.00,weatherlink.com 1.10,2013-08-10 01:42:00,
2013-08-09 19:57:00,82.2,67.0,29.95,NNW,332,3.0,5.0,60,0.00,,,0.00,weatherlink.com 1.10,2013-08-10 01:57:00,
2013-08-09 20:12:00,81.9,67.0,29.95,NNW,333,1.0,6.0,61,0.00,,,0.00,weatherlink.com 1.10,2013-08-10 02:12:00,
2013-08-09 20:27:00,81.6,68.0,29.96,NNW,334,4.0,6.0,63,0.00,,,0.00,weatherlink.com 1.10,2013-08-10 02:27:00,
2013-08-09 20:42:00,80.9,68.0,29.96,NNW,341,5.0,8.0,64,0.00,,,0.00,weatherlink.com 1.10,2013-08-10 02:42:00,
2013-08-09 20:57:00,80.5,68.0,29.97,North,349,3.0,8.0,66,0.00,,,0.00,weatherlink.com 1.10,2013-08-10 02:57:00,
2013-08-09 21:12:00,79.8,68.0,29.98,North,354,4.0,8.0,68,0.00,,,0.00,weatherlink.com 1.10,2013-08-10 03:12:00,
2013-08-09 21:27:00,79.4,69.0,29.98,North,359,6.0,9.0,70,0.00,,,0.00,weatherlink.com 1.10,2013-08-10 03:27:00,
2013-08-09 21:42:00,78.7,69.0,29.99,North,354,7.0,12.0,71,0.00,,,0.00,weatherlink.com 1.10,2013-08-10 03:42:00,
2013-08-09 21:57:00,77.8,68.0,30.00,North,354,6.0,12.0,72,0.00,,,0.00,weatherlink.com 1.10,2013-08-10 03:57:00,
2013-08-09 22:12:00,77.1,68.0,30.01,North,4,8.0,14.0,73,0.00,,,0.00,weatherlink.com 1.10,2013-08-10 04:12:00,
2013-08-09 22:27:00,76.4,68.0,30.01,North,10,8.0,13.0,74,0.00,,,0.00,weatherlink.com 1.10,2013-08-10 04:27:00,
2013-08-09 22:42:00,75.9,67.0,30.01,North,8,8.0,14.0,75,0.00,,,0.00,weatherlink.com 1.10,2013-08-10 04:42:00,
2013-08-09 22:57:00,75.5,67.0,30.02,North,4,7.0,13.0,76,0.00,,,0.00,weatherlink.com 1.10,2013-08-10 04:57:00,
2013-08-09 23:12:00,75.1,67.0,30.02,North,349,4.0,10.0,77,0.00,,,0.00,weatherlink.com 1.10,2013-08-10 05:12:00,
2013-08-09 23:27:00,74.8,68.0,30.02,North,354,7.0,10.0,78,0.00,,,0.00,weatherlink.com 1.10,2013-08-10 05:27:00,
2013-08-09 23:42:00,74.5,68.0,30.03,North,354,8.0,10.0,79,0.00,,,0.00,weatherlink.com 1.10,2013-08-10 05:42:00,
2013-08-09 23:57:00,74.2,68.0,30.03,North,4,5.0,10.0,80,0.00,,,0.00,weatherlink.com 1.10,2013-08-10 05:57:00,